Oxford, KS (67119)

3:09 PM CST on December 18, 2014 (GMT -0600)
Rural | Change Station
CLOSE
Current Station
Personal Weather Station
Location: Udall, KS
Elevation: 1211 ft
Nearby Weather Stations

Elev 1211 ft 37.36 °N, 97.12 °W | Updated 10 minutes ago

Overcast
Overcast
35.4 °F
Feels Like 32 °F
N
4.2
Wind Variable Wind from NNE

Today
High -- | Low -- °F
--% Chance of Precip.
Yesterday
High -- | Low -- °F
Precip. -- in
7:37 AM 5:13 PM
Waning Crescent, 12% visible
Pressure 30.20 in
Visibility 10.0 miles
Clouds Overcast 600 ft
Windchill 32 °F
Dew Point 34 °F
Humidity 93%
Rainfall 0.00 in
Snow Depth Not available.
UV 0 out of 12
Pollen .10 out of 12
Air Quality Not available.
Flu Activity Not available.
METAR KWLD 182054Z AUTO 35005KT 10SM OVC006 02/01 A3017 RMK AO2 CIG 005V009 SLP226 T00220011 56009

More Conditions Fewer Conditions

Pressure 30.20 in
Visibility 10.0 miles
Clouds Overcast 600 ft
Windchill 32 °F
Dew Point 34 °F
Humidity 93%
Rainfall 0.00 in
Snow Depth Not available.
UV 0 out of 12
Pollen .10 out of 12
Air Quality Not available.
Flu Activity Not available.
METAR KWLD 182054Z AUTO 35005KT 10SM OVC006 02/01 A3017 RMK AO2 CIG 005V009 SLP226 T00220011 56009

More Conditions Fewer Conditions

10-Day Weather Forecast

Almanac

Astronomy

Dec. 18, 2014 Rise Set
Actual Time
Civil Twilight
Nautical Twilight
Astronomical Twilight
Moon
Length of Visible Light
Length of Day
Tomorrow will be .
, % of the Moon is Illuminated

Today's Extremes

State Highs State Lows

Community

WunderPhotos

Upload Photos

1,778,997 photos uploaded!

WunderBlogs® & News

Nearby

Air Quality

  Air Quality AQ Index Pollutant
Not available.

Snow Depth

Station Depth Elevation

Earthquake Activity

City Distance Mag. Time & Date
Minimum magnitude displayed is 2.5.

Coastal Water Temperatures

Place Temperature

Nearby Weather Stations